Time;durP1;ratioP1;P1;durP2;ratioP2;P2;SDS_P1;SDS_P2;PMS_P1;PMS_P2;Temp;Humidity;BMP_temperature;BMP_pressure;BME280_temperature;BME280_humidity;BME280_pressure;Samples;Min_cycle;Max_cycle;Signal;HPM_P1;HPM_P2
2021/01/06 11:35:49;;;;;;;1.17;0.67;;;;;;;11.02;59.58;93062.41;5100415;27;847972;-83
2021/01/06 11:38:45;;;;;;;3.65;1.40;;;;;;;10.71;61.33;93051.28;5107245;28;20048;-84
2021/01/06 11:41:14;;;;;;;1.90;0.88;;;;;;;10.74;62.55;93058.56;5108135;28;20035;-83
2021/01/06 11:43:58;;;;;;;9.82;2.50;;;;;;;10.76;62.75;93048.88;5107670;28;20097;-85
2021/01/06 11:46:52;;;;;;;3.30;1.40;;;;;;;10.55;61.82;93057.75;5107881;28;20048;-84
2021/01/06 11:49:32;;;;;;;8.90;1.02;;;;;;;10.38;62.57;93054.94;5108292;28;20048;-88
2021/01/06 11:52:22;;;;;;;2.70;0.95;;;;;;;10.33;63.53;93059.94;5107899;28;20044;-84
2021/01/06 11:54:53;;;;;;;1.98;1.08;;;;;;;10.29;62.52;93060.34;5108304;28;20044;-90
2021/01/06 11:57:25;;;;;;;1.98;0.93;;;;;;;10.29;63.59;93062.13;5108132;28;20506;-85
2021/01/06 12:00:04;;;;;;;4.30;2.45;;;;;;;10.19;63.92;93065.19;5108024;28;20104;-83
2021/01/06 12:02:35;;;;;;;5.82;1.50;;;;;;;10.11;63.96;93055.97;5107974;28;20083;-85
2021/01/06 12:05:18;;;;;;;2.40;0.85;;;;;;;10.03;63.89;93056.22;5108080;28;20051;-84
2021/01/06 12:07:59;;;;;;;6.65;1.33;;;;;;;10.04;63.85;93052.66;5108024;28;20415;-85
2021/01/06 12:10:30;;;;;;;3.08;1.17;;;;;;;10.05;63.51;93066.28;5107856;28;20048;-83
2021/01/06 12:13:16;;;;;;;2.67;0.98;;;;;;;10.07;63.95;93049.69;5107612;28;20047;-84
2021/01/06 12:15:48;;;;;;;4.10;1.20;;;;;;;9.98;64.07;93058.63;5108080;28;20432;-85
2021/01/06 12:18:30;;;;;;;3.33;1.05;;;;;;;10.05;64.77;93068.84;5107995;28;20051;-86
2021/01/06 12:20:59;;;;;;;5.40;1.70;;;;;;;9.94;64.43;93062.59;5105914;28;20055;-87
2021/01/06 12:23:42;;;;;;;6.43;2.60;;;;;;;9.92;64.76;93051.75;5104872;28;20093;-85
2021/01/06 12:26:44;;;;;;;4.40;1.88;;;;;;;9.93;64.87;93074.66;5107506;28;20062;-87
2021/01/06 12:29:16;;;;;;;16.17;4.93;;;;;;;9.74;65.16;93059.19;5107395;28;20108;-83
2021/01/06 12:31:51;;;;;;;3.53;1.55;;;;;;;9.88;65.68;93075.28;5106918;28;20048;-85
2021/01/06 12:34:24;;;;;;;4.95;1.75;;;;;;;9.98;65.62;93071.44;5107377;28;20457;-86
2021/01/06 12:37:04;;;;;;;3.55;1.50;;;;;;;10.01;66.19;93064.13;5093425;28;20051;-85
2021/01/06 12:39:35;;;;;;;5.38;2.80;;;;;;;10.15;65.31;93075.06;5093664;28;20102;-83
2021/01/06 12:42:09;;;;;;;4.68;1.73;;;;;;;9.99;65.61;93055.06;5093521;28;20048;-85
2021/01/06 12:44:37;;;;;;;3.88;1.17;;;;;;;10.12;65.44;93080.63;5093515;28;20051;-82
2021/01/06 12:47:15;;;;;;;3.92;1.58;;;;;;;10.14;65.56;93080.44;5093555;28;20499;-83
2021/01/06 12:50:10;;;;;;;2.10;0.88;;;;;;;10.01;65.36;93078.75;5094162;28;20048;-84
2021/01/06 12:52:42;;;;;;;;;;;;;;;10.00;66.55;93083.06;5094299;28;20052;-86
2021/01/06 12:55:20;;;;;;;6.40;2.88;;;;;;;9.78;67.63;93058.78;5093021;28;19927;-85
2021/01/06 12:57:51;;;;;;;5.50;3.03;;;;;;;9.84;67.37;93074.13;5093008;28;20055;-85
2021/01/06 13:00:39;;;;;;;15.50;2.58;;;;;;;9.82;67.34;93072.75;5093395;28;20048;-84
2021/01/06 13:03:31;;;;;;;7.53;2.67;;;;;;;9.64;68.50;93053.75;5093496;28;20209;-85
2021/01/06 13:06:25;;;;;;;23.52;9.48;;;;;;;9.61;67.92;93077.22;5093159;28;20495;-86
2021/01/06 13:08:58;;;;;;;16.67;5.60;;;;;;;9.60;68.34;93075.66;5093135;28;20052;-87
2021/01/06 13:11:33;;;;;;;9.13;3.08;;;;;;;9.52;67.63;93074.13;5093110;28;20052;-83
2021/01/06 13:14:14;;;;;;;9.45;4.05;;;;;;;9.45;68.66;93078.50;5093080;28;20491;-86
2021/01/06 13:16:50;;;;;;;9.77;4.10;;;;;;;9.39;69.30;93087.78;5092831;28;20044;-85
2021/01/06 13:19:24;;;;;;;;;;;;;;;9.26;69.19;93080.16;5093573;28;20048;-84
2021/01/06 13:22:14;;;;;;;5.38;2.03;;;;;;;9.08;70.11;93076.50;5092917;28;20272;-85
2021/01/06 13:24:42;;;;;;;5.05;2.25;;;;;;;9.07;70.82;93097.97;5092876;28;20052;-84
2021/01/06 13:27:10;;;;;;;4.05;1.63;;;;;;;8.94;71.03;93073.22;5092934;28;20048;-86
2021/01/06 13:29:47;;;;;;;4.93;1.77;;;;;;;8.95;70.59;93083.22;5092841;28;20507;-83
2021/01/06 13:32:17;;;;;;;3.42;1.20;;;;;;;8.99;71.66;93087.97;5092826;28;20127;-86
2021/01/06 13:34:51;;;;;;;4.30;2.10;;;;;;;8.87;70.77;93088.59;5092344;28;20569;-85
2021/01/06 13:37:34;;;;;;;6.43;1.95;;;;;;;8.79;72.73;93086.22;5092466;28;20048;-83
2021/01/06 13:40:13;;;;;;;3.63;1.95;;;;;;;8.69;72.97;93076.41;5092705;28;20044;-85
2021/01/06 13:42:58;;;;;;;5.85;2.22;;;;;;;8.69;72.35;93087.47;5092390;28;20048;-83
2021/01/06 13:45:42;;;;;;;4.57;2.03;;;;;;;8.66;72.20;93074.28;5092555;28;20048;-83
2021/01/06 13:48:37;;;;;;;7.90;3.25;;;;;;;8.57;72.18;93076.25;5091375;28;20052;-84
2021/01/06 13:51:12;;;;;;;5.85;2.83;;;;;;;8.50;72.00;93080.56;5092123;28;20051;-85
2021/01/06 13:53:48;;;;;;;14.30;6.00;;;;;;;8.47;72.08;93073.28;5092389;28;20162;-83
2021/01/06 13:56:22;;;;;;;3.28;2.17;;;;;;;8.46;71.69;93080.19;5092131;28;20505;-84
2021/01/06 13:59:12;;;;;;;7.25;1.92;;;;;;;8.52;72.59;93076.06;5092132;28;20048;-86
2021/01/06 14:01:45;;;;;;;6.38;2.65;;;;;;;8.38;72.85;93077.84;5092374;28;20044;-83
2021/01/06 14:04:16;;;;;;;263.25;59.58;;;;;;;8.36;73.64;93064.44;5091949;28;20056;-90
2021/01/06 14:06:53;;;;;;;22.08;9.32;;;;;;;8.42;74.61;93095.16;5092142;28;20388;-86
2021/01/06 14:09:25;;;;;;;;;;;;;;;8.48;74.32;93093.56;5092471;28;20052;-85
2021/01/06 14:12:23;;;;;;;231.40;55.33;;;;;;;8.40;74.47;93097.13;5091856;28;19927;-85
2021/01/06 14:14:59;;;;;;;13.45;6.85;;;;;;;8.34;74.14;93102.25;5092000;28;20050;-86
2021/01/06 14:17:42;;;;;;;6.97;2.97;;;;;;;8.24;75.05;93085.50;5091678;28;20052;-85
2021/01/06 14:20:27;;;;;;;15.18;4.90;;;;;;;8.30;75.08;93086.50;5092020;28;20044;-83
2021/01/06 14:23:14;;;;;;;6.27;3.07;;;;;;;8.14;75.05;93072.31;5091701;28;20047;-85
2021/01/06 14:26:19;;;;;;;11.80;5.30;;;;;;;8.22;75.75;93087.50;5091705;28;20048;-85
2021/01/06 14:28:50;;;;;;;7.43;2.70;;;;;;;8.14;76.06;93082.56;5091891;28;20124;-84
2021/01/06 14:31:26;;;;;;;7.47;3.65;;;;;;;8.06;76.18;93082.78;5091476;28;20426;-85
2021/01/06 14:33:57;;;;;;;3.30;1.48;;;;;;;8.02;75.88;93072.91;5091463;28;20048;-85
2021/01/06 14:36:45;;;;;;;3.75;2.05;;;;;;;8.02;76.50;93069.59;5091404;28;20137;-85
2021/01/06 14:39:41;;;;;;;3.90;1.70;;;;;;;7.95;76.79;93068.78;5091753;28;20052;-85
2021/01/06 14:42:20;;;;;;;5.03;2.15;;;;;;;8.05;76.50;93076.09;5091453;28;20056;-85
2021/01/06 14:45:02;;;;;;;5.80;2.75;;;;;;;7.77;76.95;93039.47;5091130;28;20056;-87
2021/01/06 14:48:01;;;;;;;6.25;1.92;;;;;;;7.95;77.37;93071.34;5091487;28;20105;-86
2021/01/06 14:50:37;;;;;;;11.25;1.67;;;;;;;7.96;77.05;93068.59;5091248;28;20488;-86
2021/01/06 14:53:16;;;;;;;5.38;1.88;;;;;;;7.93;77.46;93061.34;5091253;28;20048;-86
2021/01/06 14:56:04;;;;;;;4.25;2.25;;;;;;;7.92;77.82;93056.41;5091048;28;20127;-87
2021/01/06 14:58:36;;;;;;;9.70;5.40;;;;;;;7.94;77.77;93059.53;5090567;28;20055;-86
2021/01/06 15:01:05;;;;;;;5.95;1.83;;;;;;;7.95;77.63;93073.91;5091235;28;20503;-85
2021/01/06 15:03:47;;;;;;;9.30;1.58;;;;;;;7.79;77.48;93063.09;5090920;28;20077;-86
2021/01/06 15:06:20;;;;;;;7.70;2.70;;;;;;;7.95;78.21;93071.34;5091202;28;20048;-86
2021/01/06 15:09:01;;;;;;;4.55;1.80;;;;;;;7.84;78.58;93072.72;5091286;28;20051;-86
2021/01/06 15:11:33;;;;;;;3.63;1.67;;;;;;;7.84;78.69;93070.16;5095395;28;20149;-85
2021/01/06 15:14:04;;;;;;;5.47;2.25;;;;;;;7.73;79.10;93053.66;5090876;28;20044;-86
2021/01/06 15:16:32;;;;;;;5.70;2.63;;;;;;;7.81;79.26;93057.75;5090752;28;20070;-86
2021/01/06 15:19:03;;;;;;;7.10;1.98;;;;;;;7.84;79.41;93054.81;5090846;28;20054;-85
2021/01/06 15:21:36;;;;;;;3.47;1.20;;;;;;;7.79;79.58;93059.75;5090768;28;20092;-86
2021/01/06 15:24:07;;;;;;;3.65;1.55;;;;;;;7.77;79.99;93061.72;5090725;28;20056;-85
2021/01/06 15:26:40;;;;;;;9.00;2.53;;;;;;;7.58;79.99;93041.03;5091147;28;20044;-85
2021/01/06 15:29:13;;;;;;;3.95;1.85;;;;;;;7.66;80.66;93053.63;5090800;28;20044;-85
2021/01/06 15:31:44;;;;;;;5.47;1.55;;;;;;;7.75;80.24;93062.69;5090739;28;20051;-86
2021/01/06 15:34:17;;;;;;;6.45;1.58;;;;;;;7.71;80.98;93060.72;5090663;28;20059;-86
2021/01/06 15:36:45;;;;;;;21.13;6.70;;;;;;;7.75;80.77;93052.47;5090800;28;20051;-85
2021/01/06 15:39:17;;;;;;;13.10;4.15;;;;;;;7.74;80.77;93056.00;5090428;28;20526;-86
2021/01/06 15:41:46;;;;;;;18.13;5.57;;;;;;;7.71;81.16;93058.16;5090815;28;20063;-86
2021/01/06 15:44:18;;;;;;;13.43;5.07;;;;;;;7.48;81.41;93034.56;5090954;28;20059;-86
2021/01/06 15:46:45;;;;;;;5.47;1.88;;;;;;;7.59;82.26;93055.41;5090495;28;20051;-83
2021/01/06 15:49:22;;;;;;;5.60;2.38;;;;;;;7.60;82.29;93060.31;5090723;28;20105;-84
2021/01/06 15:51:51;;;;;;;8.05;2.42;;;;;;;7.58;82.66;93061.47;5090714;28;20052;-86
2021/01/06 15:54:20;;;;;;;5.32;2.08;;;;;;;7.58;82.82;93059.72;5090505;28;20044;-85
2021/01/06 15:56:52;;;;;;;8.52;3.00;;;;;;;7.61;82.95;93059.34;5090684;28;20044;-87
2021/01/06 15:59:20;;;;;;;9.77;2.60;;;;;;;7.65;82.80;93053.81;5090511;28;20044;-86
2021/01/06 16:01:47;;;;;;;7.43;2.78;;;;;;;7.61;83.34;93045.75;5090582;28;20052;-85
2021/01/06 16:04:14;;;;;;;10.30;3.17;;;;;;;7.64;83.51;93049.69;5090425;28;20055;-85
2021/01/06 16:06:48;;;;;;;8.10;2.58;;;;;;;7.66;83.36;93051.09;5090724;28;20094;-85
2021/01/06 16:09:16;;;;;;;15.32;4.72;;;;;;;7.40;83.72;93027.06;5090678;28;20093;-85
2021/01/06 16:11:43;;;;;;;9.90;4.10;;;;;;;7.56;84.35;93050.66;5093492;28;20056;-86
2021/01/06 16:14:16;;;;;;;3.20;1.92;;;;;;;7.52;84.09;93039.25;5094238;28;20047;-85
2021/01/06 16:16:54;;;;;;;4.53;1.90;;;;;;;7.55;84.29;93039.66;5093940;28;20035;-86
2021/01/06 16:19:24;;;;;;;4.82;2.08;;;;;;;7.38;84.71;93044.34;5094035;28;20048;-84
2021/01/06 16:21:51;;;;;;;7.00;3.78;;;;;;;7.32;84.84;93035.69;5093936;28;20590;-84
2021/01/06 16:24:25;;;;;;;13.15;5.53;;;;;;;7.39;84.69;93040.81;5093988;28;20101;-85
2021/01/06 16:26:59;;;;;;;7.90;2.88;;;;;;;7.52;84.34;93052.03;5093712;28;20044;-84
2021/01/06 16:29:35;;;;;;;10.43;3.83;;;;;;;7.52;84.23;93057.16;5094227;28;20044;-86
2021/01/06 16:32:12;;;;;;;15.10;6.28;;;;;;;7.55;84.59;93056.78;5094080;28;20051;-86
2021/01/06 16:34:38;;;;;;;18.58;6.13;;;;;;;7.57;84.77;93053.03;5093724;28;20058;-87
2021/01/06 16:37:07;;;;;;;;;;;;;;;7.56;84.84;93054.03;5094316;28;20044;-87
2021/01/06 16:39:35;;;;;;;22.40;9.27;;;;;;;7.57;84.90;93060.72;5093460;28;19927;-87
2021/01/06 16:42:04;;;;;;;21.05;8.30;;;;;;;7.59;85.16;93061.28;5093629;28;20480;-87
2021/01/06 16:44:33;;;;;;;12.73;6.65;;;;;;;7.59;85.06;93051.06;5093503;28;20159;-88
2021/01/06 16:47:07;;;;;;;16.88;7.45;;;;;;;7.56;85.21;93046.34;5072992;28;20053;-86
2021/01/06 16:49:36;;;;;;;21.52;9.35;;;;;;;7.65;84.90;93052.06;5073163;28;20049;-86
2021/01/06 16:52:17;;;;;;;23.95;9.15;;;;;;;7.60;85.78;93054.41;5073008;28;20492;-88
2021/01/06 16:54:45;;;;;;;13.05;5.93;;;;;;;7.60;85.77;93052.63;5073651;28;20075;-87
2021/01/06 16:57:27;;;;;;;19.08;5.80;;;;;;;7.60;86.01;93054.41;5073044;28;20056;-87
2021/01/06 16:59:54;;;;;;;9.25;4.63;;;;;;;7.59;86.61;93055.41;5073001;28;20044;-86
2021/01/06 17:02:23;;;;;;;9.23;4.82;;;;;;;7.66;86.06;93056.19;5072865;28;20059;-84
2021/01/06 17:04:51;;;;;;;11.43;5.68;;;;;;;7.66;86.23;93052.84;5072823;28;20063;-86
2021/01/06 17:07:32;;;;;;;17.38;6.82;;;;;;;7.62;85.84;93049.88;5072960;28;20056;-85
2021/01/06 17:09:59;;;;;;;20.80;10.07;;;;;;;7.68;86.19;93046.56;5072942;28;20056;-86
2021/01/06 17:12:28;;;;;;;22.65;8.35;;;;;;;7.68;85.71;93035.56;5072738;28;20492;-85
2021/01/06 17:14:54;;;;;;;35.80;16.60;;;;;;;7.71;85.84;93043.63;5072711;28;20053;-85
2021/01/06 17:17:21;;;;;;;;;;;;;;;7.67;85.66;93039.88;5086605;28;20052;-85
2021/01/06 17:19:50;;;;;;;16.60;7.32;;;;;;;7.62;86.23;93037.09;5093058;28;20379;-85
2021/01/06 17:22:23;;;;;;;56.53;14.40;;;;;;;7.66;86.70;93040.84;5092619;28;20048;-85
2021/01/06 17:24:50;;;;;;;32.78;14.32;;;;;;;7.69;86.67;93032.78;5092661;28;20048;-86
2021/01/06 17:27:22;;;;;;;18.08;6.50;;;;;;;7.75;86.30;93044.00;5092592;28;20109;-86
2021/01/06 17:29:59;;;;;;;22.60;7.22;;;;;;;7.73;86.62;93040.88;5092674;28;20054;-86
2021/01/06 17:32:26;;;;;;;37.85;14.05;;;;;;;7.70;87.03;93041.25;5092723;28;20052;-87
2021/01/06 17:34:51;;;;;;;;;;;;;;;7.69;86.86;93037.13;5092943;28;20060;-85
2021/01/06 17:37:49;;;;;;;12.63;4.28;;;;;;;7.58;87.25;93026.50;5092494;28;20453;-85
2021/01/06 17:40:16;;;;;;;7.68;2.70;;;;;;;7.60;87.15;93026.31;5092726;28;20419;-85
2021/01/06 17:42:45;;;;;;;10.95;3.50;;;;;;;7.58;87.56;93030.81;5092665;28;20051;-85
2021/01/06 17:45:12;;;;;;;5.93;2.97;;;;;;;7.57;87.89;93030.03;5092572;28;20055;-85
2021/01/06 17:47:40;;;;;;;7.90;3.13;;;;;;;7.51;88.01;93022.34;5092554;28;20040;-85
2021/01/06 17:50:08;;;;;;;6.75;3.33;;;;;;;7.42;88.34;93017.44;5092449;28;20056;-85
2021/01/06 17:52:35;;;;;;;10.30;4.05;;;;;;;7.56;87.94;93032.78;5092194;28;20553;-84
2021/01/06 17:55:04;;;;;;;4.13;2.20;;;;;;;7.53;88.33;93022.94;5092461;28;20052;-83
2021/01/06 17:57:30;;;;;;;3.78;1.85;;;;;;;7.43;87.92;93002.88;5092231;28;20048;-85
2021/01/06 18:00:00;;;;;;;5.55;2.03;;;;;;;7.55;88.20;93015.88;5045010;28;20045;-85
2021/01/06 18:02:26;;;;;;;4.95;1.65;;;;;;;7.34;88.08;92977.53;5052006;28;20053;-84
2021/01/06 18:04:52;;;;;;;;;;;;;;;7.51;87.99;93002.69;5052197;28;20045;-85
2021/01/06 18:07:18;;;;;;;3.95;1.30;;;;;;;7.39;88.01;92988.91;5051882;28;20288;-85
2021/01/06 18:09:50;;;;;;;4.43;1.13;;;;;;;7.52;87.65;93004.28;5051990;28;20049;-84
2021/01/06 18:12:27;;;;;;;2.63;1.10;;;;;;;7.37;87.67;92984.00;5051629;28;20207;-85
2021/01/06 18:14:54;;;;;;;3.35;1.65;;;;;;;7.40;87.69;92993.84;5051693;28;20044;-85
2021/01/06 18:17:26;;;;;;;8.40;2.33;;;;;;;7.42;87.66;93009.78;5038482;28;20049;-88
2021/01/06 18:19:52;;;;;;;6.78;2.60;;;;;;;7.45;87.75;93006.81;5031582;28;20054;-85
2021/01/06 18:22:23;;;;;;;5.28;2.10;;;;;;;7.33;87.86;92988.69;5031720;28;20049;-86
2021/01/06 18:24:50;;;;;;;6.13;2.08;;;;;;;7.44;87.24;92991.66;5031742;28;20053;-82
2021/01/06 18:27:17;;;;;;;5.43;2.97;;;;;;;7.50;87.32;93001.09;5031593;28;20053;-86
2021/01/06 18:29:45;;;;;;;9.15;3.25;;;;;;;7.49;87.13;93005.44;5031445;28;20048;-88
2021/01/06 18:32:14;;;;;;;7.07;2.25;;;;;;;7.34;86.84;92979.28;5031340;28;20050;-85
2021/01/06 18:34:42;;;;;;;35.10;13.07;;;;;;;7.58;86.98;93013.72;5031057;28;20060;-86
2021/01/06 18:37:17;;;;;;;14.52;6.00;;;;;;;7.61;86.89;93025.31;5031455;28;20436;-85
2021/01/06 18:39:43;;;;;;;55.15;18.45;;;;;;;7.43;87.31;92995.22;5031349;28;20045;-85
2021/01/06 18:42:23;;;;;;;20.40;8.77;;;;;;;7.60;87.29;93016.84;5031158;28;20099;-84
2021/01/06 18:44:51;;;;;;;19.42;7.90;;;;;;;7.52;87.51;93006.81;5031424;28;20057;-86
2021/01/06 18:47:17;;;;;;;7.05;3.15;;;;;;;7.41;87.83;92992.84;5031374;28;20049;-85
2021/01/06 18:49:44;;;;;;;8.57;5.25;;;;;;;7.41;88.72;92989.53;5031169;28;20493;-88
2021/01/06 18:52:12;;;;;;;;;;;;;;;7.56;88.82;93013.13;5031540;28;20056;-86
2021/01/06 18:54:39;;;;;;;8.40;3.55;;;;;;;7.51;89.12;93000.16;5031041;28;19927;-84
2021/01/06 18:57:10;;;;;;;8.65;3.13;;;;;;;7.39;89.08;92987.16;5030966;28;20490;-87
2021/01/06 18:59:38;;;;;;;11.98;4.63;;;;;;;7.57;89.37;93007.03;5030982;28;20054;-88
2021/01/06 19:02:26;;;;;;;7.38;2.80;;;;;;;7.57;89.65;93001.13;5030984;28;20183;-87
2021/01/06 19:04:58;;;;;;;5.65;1.75;;;;;;;7.53;89.72;93008.41;5030841;28;20520;-85
2021/01/06 19:07:24;;;;;;;9.30;3.95;;;;;;;7.52;90.21;93017.06;5030790;28;20562;-85
2021/01/06 19:09:50;;;;;;;9.90;4.05;;;;;;;7.57;90.08;93019.81;5031295;28;20370;-84
2021/01/06 19:12:17;;;;;;;7.80;2.75;;;;;;;7.54;90.44;93017.63;5031082;28;20049;-85
2021/01/06 19:14:44;;;;;;;6.18;3.00;;;;;;;7.53;90.92;93020.38;5031018;28;20053;-85
2021/01/06 19:17:18;;;;;;;8.52;2.85;;;;;;;7.49;91.00;93010.56;5030801;28;20441;-84
2021/01/06 19:20:10;;;;;;;4.65;3.40;;;;;;;7.56;92.06;93009.78;5031037;28;20408;-84
2021/01/06 19:22:50;;;;;;;4.20;2.30;;;;;;;7.53;93.07;93008.41;5016621;28;20057;-85
2021/01/06 19:25:17;;;;;;;3.60;2.30;;;;;;;7.48;94.80;93001.31;5030693;28;20413;-84
2021/01/06 19:28:00;;;;;;;3.30;1.98;;;;;;;7.28;95.30;92987.72;5030713;28;20045;-84
2021/01/06 19:30:38;;;;;;;3.38;1.95;;;;;;;7.31;96.14;92988.13;5030500;28;20060;-86
2021/01/06 19:33:05;;;;;;;3.40;2.20;;;;;;;7.31;96.79;92982.25;5030780;28;20053;-84
2021/01/06 19:35:35;;;;;;;4.82;2.75;;;;;;;7.27;96.71;92969.03;5030649;28;20057;-87
2021/01/06 19:38:03;;;;;;;5.78;2.22;;;;;;;7.27;96.77;92971.59;5030971;28;20045;-85
2021/01/06 19:40:30;;;;;;;4.22;1.65;;;;;;;7.14;96.39;92951.16;5030629;28;20133;-85
2021/01/06 19:42:59;;;;;;;4.10;2.60;;;;;;;7.22;96.36;92961.19;5030497;28;20060;-85
2021/01/06 19:45:26;;;;;;;6.07;3.75;;;;;;;7.15;96.61;92945.88;5031890;28;20061;-85
2021/01/06 19:47:55;;;;;;;1.92;1.27;;;;;;;7.21;96.61;92937.41;5022217;28;20077;-82
2021/01/06 19:50:22;;;;;;;2.00;1.58;;;;;;;7.22;96.45;92938.19;5014836;28;20058;-84
2021/01/06 19:52:48;;;;;;;2.72;1.33;;;;;;;7.22;96.74;92951.75;5014743;28;20042;-86
2021/01/06 19:55:14;;;;;;;;;;;;;;;7.24;96.53;92945.66;5015030;28;20045;-86
2021/01/06 19:57:40;;;;;;;3.53;2.00;;;;;;;7.20;97.08;92950.38;5015063;28;20004;-87
2021/01/06 20:00:07;;;;;;;;;;;;;;;7.18;97.30;92948.00;5015290;28;20096;-85
2021/01/06 20:02:40;;;;;;;2.83;1.52;;;;;;;7.08;97.44;92948.41;5014557;28;20340;-86
2021/01/06 20:05:11;;;;;;;3.83;1.10;;;;;;;7.18;97.96;92947.25;5014356;28;20096;-86
2021/01/06 20:07:38;;;;;;;2.17;1.40;;;;;;;7.18;98.53;92955.69;5014457;28;20112;-85
2021/01/06 20:10:17;;;;;;;2.95;1.23;;;;;;;7.18;98.97;92957.47;5014268;28;20049;-87
2021/01/06 20:12:53;;;;;;;4.53;0.90;;;;;;;7.13;99.79;92962.38;5014318;28;20489;-87
2021/01/06 20:15:19;;;;;;;4.15;1.55;;;;;;;7.13;100.00;92959.81;5014310;28;20049;-88
2021/01/06 20:17:46;;;;;;;1.83;1.13;;;;;;;7.07;100.00;92961.34;5046953;28;20049;-88
2021/01/06 20:20:12;;;;;;;2.30;1.13;;;;;;;7.10;100.00;92953.31;5053748;28;20049;-88
2021/01/06 20:22:40;;;;;;;3.50;1.85;;;;;;;7.07;100.00;92958.81;5053643;28;20111;-90
2021/01/06 20:25:08;;;;;;;3.55;1.25;;;;;;;7.03;100.00;92950.75;5053905;28;20107;-89
2021/01/06 20:27:34;;;;;;;4.75;2.88;;;;;;;6.99;100.00;92951.34;5053670;28;20492;-90
2021/01/06 20:30:00;;;;;;;4.90;1.70;;;;;;;7.02;100.00;92951.72;5053671;28;20511;-89
2021/01/06 20:32:26;;;;;;;;;;;;;;;7.02;100.00;92949.19;5054512;28;20605;-89
2021/01/06 20:34:53;;;;;;;4.97;1.60;;;;;;;6.86;100.00;92936.78;5053653;28;19928;-90
2021/01/06 20:37:19;;;;;;;7.28;1.70;;;;;;;6.95;100.00;92944.03;5053578;28;20933;-88
2021/01/06 20:39:46;;;;;;;;;;;;;;;6.93;100.00;92935.00;5054022;28;20052;-89
2021/01/06 20:42:13;;;;;;;6.13;2.42;;;;;;;6.65;100.00;92915.50;5053346;28;19974;-90
2021/01/06 20:44:39;;;;;;;5.25;3.10;;;;;;;6.73;100.00;92912.78;5052273;28;20048;-90
2021/01/06 20:47:06;;;;;;;7.15;2.58;;;;;;;6.89;100.00;92924.41;5033459;28;20085;-90
2021/01/06 20:49:32;;;;;;;3.83;1.85;;;;;;;6.88;100.00;92927.13;5033334;28;20054;-88
2021/01/06 20:51:58;;;;;;;;;;;;;;;6.89;100.00;92929.50;5034021;28;20084;-89
2021/01/06 20:54:24;;;;;;;2.05;1.45;;;;;;;6.80;100.00;92933.22;5033506;28;19924;-90
2021/01/06 20:56:52;;;;;;;;;;;;;;;6.81;100.00;92929.69;5033459;28;20053;-90
2021/01/06 20:59:22;;;;;;;2.67;1.75;;;;;;;6.78;100.00;92922.41;5033289;28;19951;-89
2021/01/06 21:01:49;;;;;;;8.40;1.83;;;;;;;6.78;100.00;92915.56;5033156;28;20056;-90
2021/01/06 21:04:16;;;;;;;3.03;1.70;;;;;;;6.65;100.00;92897.63;5033013;28;20060;-91
2021/01/06 21:06:42;;;;;;;3.22;0.82;;;;;;;6.59;100.00;92889.00;5033157;28;20516;-87
2021/01/06 21:09:09;;;;;;;2.65;1.50;;;;;;;6.53;100.00;92880.34;5037619;28;20068;-88
2021/01/06 21:11:35;;;;;;;4.45;1.63;;;;;;;6.81;100.00;92914.38;5032942;28;20046;-87
2021/01/06 21:14:03;;;;;;;3.55;1.55;;;;;;;6.79;100.00;92917.13;5033012;28;20053;-89
2021/01/06 21:16:30;;;;;;;2.78;1.60;;;;;;;6.76;100.00;92922.59;5038560;28;20037;-88
2021/01/06 21:18:56;;;;;;;1.98;0.98;;;;;;;6.72;100.00;92906.13;5052752;28;20059;-88
2021/01/06 21:21:23;;;;;;;2.97;1.40;;;;;;;6.74;100.00;92926.31;5052922;28;20045;-90
2021/01/06 21:23:49;;;;;;;3.72;1.40;;;;;;;6.69;100.00;92916.69;5052702;28;20051;-87
2021/01/06 21:26:16;;;;;;;2.03;1.15;;;;;;;6.71;100.00;92919.06;5052701;28;20485;-89
2021/01/06 21:28:43;;;;;;;5.97;1.65;;;;;;;6.64;100.00;92908.84;5052760;28;20045;-88
2021/01/06 21:31:10;;;;;;;2.50;1.27;;;;;;;6.70;100.00;92910.59;5052414;28;20099;-88
2021/01/06 21:33:36;;;;;;;2.42;0.90;;;;;;;6.68;100.00;92921.00;5052351;28;20045;-90
2021/01/06 21:36:02;;;;;;;;;;;;;;;6.73;100.00;92914.53;5052945;28;20581;-88
2021/01/06 21:38:29;;;;;;;3.97;1.33;;;;;;;6.71;100.00;92906.31;5052429;28;19921;-89
2021/01/06 21:40:55;;;;;;;;;;;;;;;6.73;100.00;92909.44;5053195;28;20044;-87
2021/01/06 21:43:21;;;;;;;2.95;1.33;;;;;;;6.59;100.00;92899.22;5052746;28;19975;-89
2021/01/06 21:45:47;;;;;;;;;;;;;;;6.59;100.00;92899.22;5052701;28;20053;-88
2021/01/06 21:48:14;;;;;;;1.52;0.70;;;;;;;6.56;100.00;92891.94;5052253;28;20031;-87
2021/01/06 21:50:41;;;;;;;1.40;0.75;;;;;;;6.36;100.00;92856.16;5050839;28;20049;-89
2021/01/06 21:53:07;;;;;;;;;;;;;;;6.58;100.00;92884.88;5031248;28;20053;-88
2021/01/06 21:55:33;;;;;;;2.03;1.17;;;;;;;6.50;100.00;92878.19;5031469;28;19932;-88
2021/01/06 21:57:59;;;;;;;;;;;;;;;6.52;100.00;92883.06;5031844;28;20037;-88
2021/01/06 22:00:27;;;;;;;2.30;0.90;;;;;;;6.50;100.00;92879.94;5031295;28;19928;-89
2021/01/06 22:02:54;;;;;;;2.05;1.13;;;;;;;6.46;100.00;92871.09;5032249;28;20048;-87
2021/01/06 22:05:22;;;;;;;6.28;0.70;;;;;;;6.51;100.00;92878.97;5032050;28;20057;-88
2021/01/06 22:07:48;;;;;;;1.90;1.00;;;;;;;6.42;100.00;92852.84;5030988;28;20053;-83
2021/01/06 22:10:14;;;;;;;;;;;;;;;6.54;100.00;92876.81;5032473;28;20045;-85
2021/01/06 22:12:41;;;;;;;2.13;1.02;;;;;;;6.53;100.00;92877.00;5031795;28;19921;-86
2021/01/06 22:15:08;;;;;;;3.00;1.63;;;;;;;6.58;100.00;92869.56;5032058;28;20056;-86
2021/01/06 22:17:35;;;;;;;1.42;0.90;;;;;;;6.55;100.00;92878.41;5046486;28;20516;-86
2021/01/06 22:20:01;;;;;;;2.50;1.23;;;;;;;6.55;100.00;92869.94;5051582;28;20045;-87
2021/01/06 22:22:28;;;;;;;1.88;1.17;;;;;;;6.57;100.00;92875.63;5051613;28;20049;-87
2021/01/06 22:24:55;;;;;;;2.95;1.13;;;;;;;6.60;100.00;92870.16;5051365;28;20056;-85
2021/01/06 22:27:21;;;;;;;;;;;;;;;6.59;100.00;92871.13;5052143;28;20056;-88
2021/01/06 22:29:47;;;;;;;1.75;0.68;;;;;;;6.45;100.00;92849.91;5051652;28;19924;-88
2021/01/06 22:32:14;;;;;;;1.20;0.77;;;;;;;6.43;100.00;92853.63;5051695;28;20107;-88
2021/01/06 22:34:40;;;;;;;1.25;0.57;;;;;;;6.58;100.00;92863.66;5051385;28;20104;-88
2021/01/06 22:37:08;;;;;;;1.52;0.73;;;;;;;6.25;100.00;92820.03;5051467;28;20061;-88
2021/01/06 22:39:36;;;;;;;2.70;1.40;;;;;;;6.25;100.00;92819.25;5051305;28;20049;-86
2021/01/06 22:42:03;;;;;;;2.15;1.33;;;;;;;6.48;100.00;92856.41;5051203;28;20122;-88
2021/01/06 22:44:29;;;;;;;1.65;1.00;;;;;;;6.51;100.00;92861.09;5051257;28;20057;-85
2021/01/06 22:46:55;;;;;;;;;;;;;;;6.47;100.00;92854.81;5051905;28;20393;-87
2021/01/06 22:49:22;;;;;;;4.50;1.13;;;;;;;6.21;100.00;92829.03;5051285;28;19921;-86
2021/01/06 22:51:48;;;;;;;3.20;1.58;;;;;;;6.44;100.00;92863.66;5051176;28;20051;-87
2021/01/06 22:54:14;;;;;;;;;;;;;;;6.45;100.00;92861.88;5051536;28;20048;-88
2021/01/06 22:56:41;;;;;;;3.42;1.88;;;;;;;6.41;100.00;92853.81;5051452;28;19921;-88
2021/01/06 22:59:07;;;;;;;1.65;0.73;;;;;;;6.37;100.00;92860.28;5051287;28;20103;-84
2021/01/06 23:01:38;;;;;;;1.13;0.68;;;;;;;6.36;100.00;92853.59;5050953;28;20052;-88
2021/01/06 23:04:05;;;;;;;1.25;0.73;;;;;;;6.43;100.00;92848.53;5038330;28;20049;-86
2021/01/06 23:06:31;;;;;;;1.40;1.08;;;;;;;6.45;100.00;92855.00;5031055;28;20046;-86
2021/01/06 23:08:58;;;;;;;1.77;0.85;;;;;;;6.47;100.00;92849.72;5030822;28;20056;-86
2021/01/06 23:11:24;;;;;;;2.05;1.35;;;;;;;6.47;100.00;92845.38;5030843;28;20049;-87
2021/01/06 23:13:52;;;;;;;;;;;;;;;6.44;100.00;92832.22;5031364;28;20497;-86
2021/01/06 23:16:18;;;;;;;3.58;1.23;;;;;;;6.40;100.00;92840.25;5030906;28;19925;-86
2021/01/06 23:18:44;;;;;;;;;;;;;;;6.41;100.00;92848.72;5031036;28;20099;-88
2021/01/06 23:21:12;;;;;;;1.20;0.77;;;;;;;6.30;100.00;92828.88;5030923;28;20302;-86
2021/01/06 23:23:38;;;;;;;1.75;0.95;;;;;;;6.33;100.00;92847.13;5030799;28;20445;-87
2021/01/06 23:26:04;;;;;;;;;;;;;;;6.36;100.00;92841.66;5031061;28;20149;-85
2021/01/06 23:28:30;;;;;;;2.45;1.30;;;;;;;6.30;100.00;92842.41;5031159;28;19932;-86
2021/01/06 23:30:58;;;;;;;;;;;;;;;6.31;100.00;92838.88;5031295;28;20053;-85
2021/01/06 23:33:24;;;;;;;2.45;1.88;;;;;;;6.19;100.00;92825.09;5030703;28;19928;-84
2021/01/06 23:35:51;;;;;;;4.55;1.38;;;;;;;6.27;100.00;92835.13;5030650;28;20049;-86
2021/01/06 23:38:17;;;;;;;;;;;;;;;6.26;100.00;92829.25;5030992;28;20080;-86
2021/01/06 23:40:43;;;;;;;1.13;0.82;;;;;;;6.11;100.00;92810.78;5030842;28;19921;-87